Loreto, Mexico

5:41 PM MDT on July 29, 2016 (GMT -0600)
Loreto International | | Change Station

Elev 23 ft 26.02 °N, 111.35 °W | Updated 1 hour ago

Mostly Cloudy
Mostly Cloudy
88 °F
Feels Like 94 °F
N
12
Wind Variable Wind from SSE

Today
High -- | Low -- °F
--% Chance of Precip.
Yesterday
High -- | Low -- °F
Precip. -- in
Pressure 29.75 in
Visibility 8.0 miles
Clouds Few 5000 ft
Mostly Cloudy 24000 ft
Heat Index 94 °F
Dew Point 72 °F
Humidity 58%
Rainfall 0.00 in
Snow Depth Not available.
6:50 AM 8:13 PM
Waning Crescent, 18% visible
METAR MMLT 292240Z 16010KT 8SM FEW050 BKN240 31/22 A2975 RMK 8/401
Pressure 29.75 in
Visibility 8.0 miles
Clouds Few 5000 ft
Mostly Cloudy 24000 ft
Heat Index 94 °F
Dew Point 72 °F
Humidity 58%
Rainfall 0.00 in
Snow Depth Not available.
6:50 AM 8:13 PM
Waning Crescent, 18% visible
METAR MMLT 292240Z 16010KT 8SM FEW050 BKN240 31/22 A2975 RMK 8/401

10-Day Weather Forecast

No radar image for this location.
×

Almanac

Astronomy

Jul. 29, 2016 Rise Set
Actual Time
Civil Twilight
Nautical Twilight
Astronomical Twilight
Moon
Length of Visible Light
Length of Day
Tomorrow will be .
, % of the Moon is Illuminated

Today's Extremes

Country Highs Country Lows

Community

WunderPhotos

Upload Photos

1,928,447 photos uploaded!

WunderBlog® & News

Nearby

Air Quality

  Air Quality AQ Index Pollutant
Not available.

Snow Depth

Station Depth Elevation

Earthquake Activity

City Distance Mag. Time & Date
Minimum magnitude displayed is 2.5.

Coastal Water Temperatures

Place Temperature

Stations

Nearby Weather Stations

Station Location Temp. Windchill Dew Point Humidity Wind Precip. Elev Updated Type